Rentiesville, Oklahoma
Current Conditions -  °F | °C
As of 2:53 AM on Friday 31 Oct 2014 (Local Time) from KMKO Reporting Station
Clear Clear  
Wind Chill: 53°   Ceiling: Unl
Heat Index: 53°   Visibility: 10mi
Dew Point: 40°   Wind: 13mph
Humidity: 61%   Direction: 360°N
Pressure: 30.2"   Gusts: NA
Location:  35.52°N, 95.49°W
Report Text: KMKO 310753Z AUTO 36011KT 10SM CLR 12/04 A3020 RMK AO2 SLP223 T01170044
Loading
Personal Weather Stations






























Interactive Weather Map
Tropical Storm Tracking
New forecast layout! Learn more

10-Day Weather Forecast

Advertisements
Track Severe Weather on mobile